createdAt,value
2023-06-17T00:00:55.824Z,72.04
2023-06-17T00:01:55.767Z,69.34
2023-06-17T00:02:55.845Z,72.08
2023-06-17T00:03:55.864Z,71.47
2023-06-17T00:04:55.850Z,72.17
2023-06-17T00:05:55.877Z,73.32
2023-06-17T00:06:55.911Z,73.22
2023-06-17T00:07:55.942Z,73.66
2023-06-17T00:08:55.975Z,73.97
2023-06-17T00:09:55.962Z,73.05
2023-06-17T00:10:55.999Z,73.86
2023-06-17T00:11:56.012Z,74.00
2023-06-17T00:12:56.063Z,74.71
2023-06-17T00:13:56.064Z,74.71
2023-06-17T00:14:56.092Z,74.81
2023-06-17T00:15:56.124Z,74.71
2023-06-17T00:16:56.160Z,75.35
2023-06-17T00:17:56.208Z,75.35
2023-06-17T00:18:56.220Z,76.67
2023-06-17T00:19:56.210Z,76.57
2023-06-17T00:20:56.226Z,76.61
2023-06-17T00:21:56.250Z,75.66
2023-06-17T00:22:56.305Z,76.06
2023-06-17T00:23:56.396Z,76.67
2023-06-17T00:24:56.322Z,76.64
2023-06-17T00:25:56.346Z,76.43
2023-06-17T00:26:56.367Z,76.43
2023-06-17T00:27:56.416Z,76.33
2023-06-17T00:28:56.463Z,75.59
2023-06-17T00:29:56.445Z,75.52
2023-06-17T00:30:56.463Z,75.49
2023-06-17T00:31:56.492Z,75.49
2023-06-17T00:32:56.557Z,76.20
2023-06-17T00:33:56.563Z,76.43
2023-06-17T00:34:56.558Z,75.73
2023-06-17T00:35:56.596Z,76.60
2023-06-17T00:36:56.602Z,76.13
2023-06-17T00:37:56.629Z,76.06
2023-06-17T00:38:56.647Z,75.86
2023-06-17T00:39:56.678Z,76.81
2023-06-17T00:40:56.704Z,77.12
2023-06-17T00:41:56.722Z,77.42
2023-06-17T00:42:56.751Z,77.45
2023-06-17T00:43:56.780Z,77.97
2023-06-17T00:44:56.790Z,77.90
2023-06-17T00:45:56.843Z,78.71
2023-06-17T00:46:56.877Z,79.05
2023-06-17T00:47:56.877Z,79.56
2023-06-17T00:48:56.882Z,80.00
2023-06-17T00:49:56.909Z,80.51
2023-06-17T00:50:56.994Z,80.92
2023-06-17T00:52:10.073Z,80.85
2023-06-17T00:52:56.978Z,80.41
2023-06-17T00:53:57.003Z,80.21
2023-06-17T00:54:57.017Z,80.41
2023-06-17T00:55:57.097Z,80.27
2023-06-17T00:56:57.068Z,80.51
2023-06-17T00:57:57.092Z,80.62
2023-06-17T00:58:57.119Z,80.27
2023-06-17T00:59:57.133Z,80.07
2023-06-17T01:00:57.194Z,79.77
2023-06-17T01:01:57.183Z,79.97
2023-06-17T01:02:57.246Z,79.25
2023-06-17T01:03:57.284Z,79.25
2023-06-17T01:04:57.250Z,80.41
2023-06-17T01:05:57.327Z,79.77
2023-06-17T01:06:57.300Z,79.77
2023-06-17T01:07:57.360Z,79.86
2023-06-17T01:08:57.360Z,79.86
2023-06-17T01:09:57.367Z,79.90
2023-06-17T01:10:59.058Z,79.86
2023-06-17T01:11:57.411Z,80.00
2023-06-17T01:12:57.467Z,80.00
2023-06-17T01:13:57.477Z,80.62
2023-06-17T01:14:57.485Z,81.16
2023-06-17T01:15:57.544Z,81.71
2023-06-17T01:16:57.533Z,82.32
2023-06-17T01:17:57.588Z,82.52
2023-06-17T01:18:57.573Z,82.52
2023-06-17T01:19:57.595Z,82.99
2023-06-17T01:20:57.629Z,82.93
2023-06-17T01:21:57.639Z,82.68
2023-06-17T01:22:57.676Z,82.12
2023-06-17T01:23:57.714Z,82.28
2023-06-17T01:24:57.728Z,82.38
2023-06-17T01:25:57.759Z,81.87
2023-06-17T01:26:57.755Z,81.77
2023-06-17T01:27:57.782Z,81.57
2023-06-17T01:28:57.809Z,81.43
2023-06-17T01:29:57.824Z,80.82
2023-06-17T01:30:57.855Z,80.72
2023-06-17T01:31:57.891Z,80.76
2023-06-17T01:32:57.925Z,80.55
2023-06-17T01:33:57.911Z,81.16
2023-06-17T01:34:57.939Z,81.37
2023-06-17T01:35:57.961Z,81.16
2023-06-17T01:36:58.042Z,81.87
2023-06-17T01:37:58.011Z,81.71
2023-06-17T01:38:58.026Z,81.81
2023-06-17T01:39:58.045Z,82.62
2023-06-17T01:40:58.070Z,82.87
2023-06-17T01:41:58.140Z,83.17
2023-06-17T01:42:58.123Z,83.27
2023-06-17T01:43:58.142Z,83.62
2023-06-17T01:44:58.162Z,84.12
2023-06-17T01:45:58.224Z,84.74
2023-06-17T01:46:58.233Z,84.78
2023-06-17T01:47:58.323Z,84.78
2023-06-17T01:48:58.306Z,84.88
2023-06-17T01:49:58.276Z,84.88
2023-06-17T01:50:58.303Z,84.98
2023-06-17T01:51:58.317Z,85.28
2023-06-17T01:52:58.340Z,85.63
2023-06-17T01:53:58.386Z,85.53
2023-06-17T01:54:58.379Z,86.04
2023-06-17T01:55:58.402Z,86.24
2023-06-17T01:56:58.426Z,86.55
2023-06-17T01:57:58.473Z,86.45
2023-06-17T01:58:58.481Z,86.41
2023-06-17T01:59:58.495Z,86.30
2023-06-17T02:00:58.560Z,85.96
2023-06-17T02:01:58.573Z,85.66
2023-06-17T02:02:58.662Z,84.84
2023-06-17T02:03:58.634Z,84.09
2023-06-17T02:04:58.611Z,84.09
2023-06-17T02:05:58.658Z,83.98
2023-06-17T02:06:58.651Z,83.48
2023-06-17T02:07:58.676Z,83.51
2023-06-17T02:08:58.696Z,84.37
2023-06-17T02:09:58.716Z,85.02
2023-06-17T02:10:58.742Z,86.08
2023-06-17T02:11:58.760Z,86.90
2023-06-17T02:12:58.807Z,87.82
2023-06-17T02:13:58.829Z,87.35
2023-06-17T02:14:58.825Z,87.35
2023-06-17T02:15:58.907Z,88.17
2023-06-17T02:16:58.869Z,88.37
2023-06-17T02:17:58.926Z,88.47
2023-06-17T02:18:58.917Z,88.53
2023-06-17T02:19:58.931Z,88.63
2023-06-17T02:20:58.960Z,88.32
2023-06-17T02:21:58.997Z,87.00
2023-06-17T02:22:59.039Z,87.30
2023-06-17T02:23:59.050Z,87.30
2023-06-17T02:24:59.043Z,87.51
2023-06-17T02:25:59.065Z,87.41
2023-06-17T02:26:59.090Z,87.30
2023-06-17T02:27:59.138Z,87.20
2023-06-17T02:28:59.161Z,87.10
2023-06-17T02:29:59.160Z,86.80
2023-06-17T02:30:59.204Z,86.69
2023-06-17T02:31:59.200Z,86.49
2023-06-17T02:32:59.249Z,86.80
2023-06-17T02:33:59.239Z,86.69
2023-06-17T02:34:59.321Z,86.63
2023-06-17T02:35:59.289Z,86.39
2023-06-17T02:36:59.309Z,86.29
2023-06-17T02:37:59.330Z,86.49
2023-06-17T02:38:59.360Z,87.04
2023-06-17T02:39:59.398Z,87.14
2023-06-17T02:40:59.468Z,87.55
2023-06-17T02:41:59.414Z,87.71
2023-06-17T02:42:59.449Z,87.71
2023-06-17T02:43:59.455Z,87.76
2023-06-17T02:44:59.483Z,87.45
2023-06-17T02:45:59.555Z,87.76
2023-06-17T02:46:59.577Z,87.24
2023-06-17T02:47:59.601Z,87.14
2023-06-17T02:48:59.564Z,87.55
2023-06-17T02:49:59.579Z,88.06
2023-06-17T02:50:59.635Z,87.49
2023-06-17T02:51:59.627Z,88.10
2023-06-17T02:52:59.657Z,88.51
2023-06-17T02:53:59.673Z,88.51
2023-06-17T02:54:59.693Z,88.14
2023-06-17T02:55:59.795Z,88.82
2023-06-17T02:56:59.737Z,88.82
2023-06-17T02:57:59.772Z,88.71
2023-06-17T02:58:59.779Z,88.82
2023-06-17T02:59:59.796Z,88.17
2023-06-17T03:00:59.900Z,88.26
2023-06-17T03:01:59.856Z,88.17
2023-06-17T03:03:00.012Z,87.71
2023-06-17T03:03:59.914Z,88.06
2023-06-17T03:04:59.904Z,87.82
2023-06-17T03:05:59.926Z,87.10
2023-06-17T03:06:59.948Z,87.30
2023-06-17T03:07:59.971Z,86.49
2023-06-17T03:08:59.994Z,86.69
2023-06-17T03:10:00.015Z,87.14
2023-06-17T03:11:00.030Z,87.45
2023-06-17T03:12:00.057Z,87.59
2023-06-17T03:13:00.086Z,88.71
2023-06-17T03:14:00.162Z,88.85
2023-06-17T03:15:00.146Z,89.37
2023-06-17T03:16:00.169Z,89.37
2023-06-17T03:17:00.393Z,89.67
2023-06-17T03:18:00.217Z,89.88
2023-06-17T03:19:00.234Z,89.37
2023-06-17T03:20:00.268Z,89.58
2023-06-17T03:21:00.253Z,89.78
2023-06-17T03:22:00.267Z,89.53
2023-06-17T03:23:00.289Z,89.32
2023-06-17T03:24:00.384Z,89.43
2023-06-17T03:25:00.332Z,89.02
2023-06-17T03:26:00.354Z,89.02
2023-06-17T03:27:00.377Z,88.92
2023-06-17T03:28:00.394Z,88.88
2023-06-17T03:29:00.421Z,88.78
2023-06-17T03:30:00.443Z,88.67
2023-06-17T03:31:00.529Z,88.17
2023-06-17T03:32:00.487Z,88.26
2023-06-17T03:33:00.551Z,87.76
2023-06-17T03:34:00.532Z,87.41
2023-06-17T03:35:00.566Z,87.51
2023-06-17T03:36:00.637Z,86.69
2023-06-17T03:37:00.606Z,87.10
2023-06-17T03:38:00.607Z,87.00
2023-06-17T03:39:00.633Z,86.39
2023-06-17T03:40:00.648Z,86.69
2023-06-17T03:41:00.714Z,86.69
2023-06-17T03:42:00.712Z,86.49
2023-06-17T03:43:00.722Z,86.59
2023-06-17T03:44:00.763Z,86.69
2023-06-17T03:45:00.773Z,87.04
2023-06-17T03:46:00.775Z,87.55
2023-06-17T03:47:00.870Z,87.70
2023-06-17T03:48:00.919Z,88.20
2023-06-17T03:49:00.874Z,88.31
2023-06-17T03:50:00.866Z,88.85
2023-06-17T03:51:00.879Z,88.82
2023-06-17T03:52:00.905Z,89.32
2023-06-17T03:53:00.940Z,89.02
2023-06-17T03:54:00.953Z,89.17
2023-06-17T03:55:00.986Z,89.37
2023-06-17T03:56:01.000Z,89.67
2023-06-17T03:57:01.009Z,90.80
2023-06-17T03:58:01.055Z,90.59
2023-06-17T03:59:01.054Z,90.29
2023-06-17T04:00:01.076Z,90.39
2023-06-17T04:01:01.122Z,90.39
2023-06-17T04:02:01.195Z,90.35
2023-06-17T04:03:01.204Z,90.25
2023-06-17T04:04:01.444Z,90.31
2023-06-17T04:05:01.186Z,89.69
2023-06-17T04:06:01.203Z,89.08
2023-06-17T04:07:01.222Z,89.08
2023-06-17T04:08:01.243Z,88.78
2023-06-17T04:09:01.300Z,88.78
2023-06-17T04:10:06.579Z,88.47
2023-06-17T04:11:01.309Z,88.67
2023-06-17T04:12:01.324Z,89.08
2023-06-17T04:13:01.348Z,89.18
2023-06-17T04:14:01.391Z,89.39
2023-06-17T04:15:01.400Z,89.49
2023-06-17T04:16:01.410Z,89.39
2023-06-17T04:17:01.433Z,89.55
2023-06-17T04:18:01.499Z,89.04
2023-06-17T04:19:01.473Z,89.25
2023-06-17T04:20:01.510Z,88.63
2023-06-17T04:21:01.550Z,88.63
2023-06-17T04:22:01.543Z,88.73
2023-06-17T04:23:01.572Z,88.12
2023-06-17T04:24:01.635Z,87.92
2023-06-17T04:25:01.600Z,88.02
2023-06-17T04:26:01.773Z,88.12
2023-06-17T04:27:01.645Z,88.43
2023-06-17T04:28:01.660Z,88.84
2023-06-17T04:29:01.682Z,88.63
2023-06-17T04:30:01.712Z,88.12
2023-06-17T04:31:01.758Z,87.92
2023-06-17T04:32:01.772Z,88.59
2023-06-17T04:33:01.892Z,88.79
2023-06-17T04:34:01.795Z,88.69
2023-06-17T04:35:01.826Z,88.90
2023-06-17T04:36:01.833Z,88.79
2023-06-17T04:37:01.923Z,88.79
2023-06-17T04:38:01.891Z,88.75
2023-06-17T04:39:01.900Z,88.75
2023-06-17T04:40:01.931Z,88.85
2023-06-17T04:41:01.937Z,87.79
2023-06-17T04:42:01.970Z,88.10
2023-06-17T04:43:02.028Z,87.90
2023-06-17T04:44:02.004Z,87.38
2023-06-17T04:45:02.030Z,87.35
2023-06-17T04:46:02.047Z,87.69
2023-06-17T04:47:02.155Z,87.04
2023-06-17T04:48:02.183Z,87.14
2023-06-17T04:49:02.154Z,87.10
2023-06-17T04:50:02.161Z,86.90
2023-06-17T04:51:02.155Z,86.90
2023-06-17T04:52:02.173Z,86.90
2023-06-17T04:53:02.225Z,86.90
2023-06-17T04:54:02.254Z,87.20
2023-06-17T04:55:02.241Z,87.00
2023-06-17T04:56:02.257Z,86.65
2023-06-17T04:57:02.276Z,87.10
2023-06-17T04:58:02.297Z,87.20
2023-06-17T04:59:02.347Z,86.86
2023-06-17T05:00:02.389Z,87.98
2023-06-17T05:01:02.400Z,87.77
2023-06-17T05:02:02.380Z,87.77
2023-06-17T05:03:02.541Z,88.08
2023-06-17T05:04:02.539Z,87.26
2023-06-17T05:05:02.476Z,87.47
2023-06-17T05:06:02.471Z,87.47
2023-06-17T05:07:02.490Z,86.86
2023-06-17T05:08:02.514Z,87.06
2023-06-17T05:09:02.539Z,86.55
2023-06-17T05:10:02.607Z,87.67
2023-06-17T05:11:02.576Z,87.77
2023-06-17T05:12:02.607Z,87.73
2023-06-17T05:13:02.624Z,88.65
2023-06-17T05:14:02.655Z,88.54
2023-06-17T05:15:02.709Z,88.34
2023-06-17T05:16:02.713Z,88.60
2023-06-17T05:17:02.732Z,88.50
2023-06-17T05:18:02.775Z,88.30
2023-06-17T05:19:02.754Z,87.89
2023-06-17T05:20:02.773Z,87.08
2023-06-17T05:21:02.826Z,87.29
2023-06-17T05:22:02.832Z,87.34
2023-06-17T05:23:02.876Z,86.53
2023-06-17T05:24:04.016Z,86.74
2023-06-17T05:25:02.886Z,87.38
2023-06-17T05:26:02.935Z,88.16
2023-06-17T05:27:02.974Z,88.16
2023-06-17T05:28:02.967Z,87.81
2023-06-17T05:29:02.980Z,87.92
2023-06-17T05:30:02.998Z,87.51
2023-06-17T05:31:03.068Z,86.96
2023-06-17T05:32:03.068Z,86.86
2023-06-17T05:33:03.123Z,86.55
2023-06-17T05:34:03.079Z,86.59
2023-06-17T05:35:03.124Z,87.37
2023-06-17T05:36:03.143Z,86.86
2023-06-17T05:37:03.154Z,85.53
2023-06-17T05:38:03.191Z,85.94
2023-06-17T05:39:03.223Z,86.41
2023-06-17T05:40:03.233Z,86.51
2023-06-17T05:41:03.244Z,85.80
2023-06-17T05:42:03.263Z,86.65
2023-06-17T05:43:03.287Z,85.70
2023-06-17T05:44:03.332Z,86.61
2023-06-17T05:45:03.329Z,87.57
2023-06-17T05:46:03.395Z,87.97
2023-06-17T05:47:03.377Z,87.46
2023-06-17T05:48:03.466Z,87.97
2023-06-17T05:49:03.448Z,87.32
2023-06-17T05:50:03.438Z,87.46
2023-06-17T05:51:03.465Z,86.96
2023-06-17T05:52:03.486Z,87.16
2023-06-17T05:53:03.512Z,86.82
2023-06-17T05:54:03.534Z,86.86
2023-06-17T05:55:03.590Z,86.82
2023-06-17T05:56:03.595Z,85.90
2023-06-17T05:57:03.604Z,86.51
2023-06-17T05:58:03.619Z,86.00
2023-06-17T05:59:03.654Z,85.80
2023-06-17T06:00:03.664Z,84.89
2023-06-17T06:01:03.717Z,84.99
2023-06-17T06:02:03.744Z,85.76
2023-06-17T06:03:03.747Z,86.37
2023-06-17T06:04:03.785Z,86.16
2023-06-17T06:05:03.785Z,85.05
2023-06-17T06:06:03.857Z,84.95
2023-06-17T06:07:03.832Z,85.15
2023-06-17T06:08:03.887Z,85.15
2023-06-17T06:09:03.947Z,85.56
2023-06-17T06:10:03.897Z,84.91
2023-06-17T06:11:03.945Z,85.15
2023-06-17T06:12:03.943Z,85.15
2023-06-17T06:13:03.969Z,85.25
2023-06-17T06:14:04.011Z,84.91
2023-06-17T06:15:04.010Z,85.21
2023-06-17T06:16:04.079Z,85.82
2023-06-17T06:17:04.060Z,85.93
2023-06-17T06:18:04.179Z,85.42
2023-06-17T06:19:04.103Z,85.21
2023-06-17T06:20:04.124Z,85.52
2023-06-17T06:21:04.153Z,86.33
2023-06-17T06:22:04.170Z,85.72
2023-06-17T06:23:04.223Z,85.99
2023-06-17T06:24:04.261Z,85.01
2023-06-17T06:25:04.283Z,84.67
2023-06-17T06:26:04.275Z,85.11
2023-06-17T06:27:04.288Z,84.97
2023-06-17T06:28:04.307Z,85.78
2023-06-17T06:29:04.398Z,85.68
2023-06-17T06:30:04.361Z,85.17
2023-06-17T06:31:04.393Z,85.33
2023-06-17T06:32:04.397Z,85.03
2023-06-17T06:33:04.476Z,84.22
2023-06-17T06:34:04.462Z,84.73
2023-06-17T06:35:04.462Z,83.61
2023-06-17T06:36:04.504Z,84.22
2023-06-17T06:37:04.513Z,84.22
2023-06-17T06:38:04.536Z,84.63
2023-06-17T06:39:04.564Z,83.82
2023-06-17T06:40:04.645Z,84.22
2023-06-17T06:41:04.633Z,83.88
2023-06-17T06:42:04.625Z,85.10
2023-06-17T06:43:04.655Z,84.89
2023-06-17T06:44:04.675Z,84.28
2023-06-17T06:45:04.729Z,84.28
2023-06-17T06:46:04.856Z,84.28
2023-06-17T06:47:04.744Z,83.74
2023-06-17T06:48:04.810Z,82.93
2023-06-17T06:49:04.815Z,83.78
2023-06-17T06:50:04.815Z,83.37
2023-06-17T06:51:04.866Z,83.47
2023-06-17T06:52:04.872Z,83.58
2023-06-17T06:53:04.883Z,83.58
2023-06-17T06:54:04.905Z,83.64
2023-06-17T06:55:04.943Z,83.74
2023-06-17T06:56:04.977Z,82.93
2023-06-17T06:57:04.984Z,82.83
2023-06-17T06:58:05.012Z,83.44
2023-06-17T06:59:05.026Z,83.44
2023-06-17T07:00:05.044Z,83.70
2023-06-17T07:01:05.128Z,83.40
2023-06-17T07:02:05.120Z,82.79
2023-06-17T07:03:05.176Z,83.40
2023-06-17T07:04:05.143Z,83.80
2023-06-17T07:05:05.298Z,82.28
2023-06-17T07:06:05.183Z,82.45
2023-06-17T07:07:05.246Z,82.49
2023-06-17T07:08:05.238Z,82.85
2023-06-17T07:09:05.262Z,82.24
2023-06-17T07:10:05.281Z,81.84
2023-06-17T07:11:05.304Z,81.84
2023-06-17T07:12:05.361Z,82.31
2023-06-17T07:13:05.353Z,82.31
2023-06-17T07:14:05.398Z,80.83
2023-06-17T07:15:05.411Z,81.03
2023-06-17T07:16:05.418Z,81.74
2023-06-17T07:17:05.641Z,81.03
2023-06-17T07:18:05.559Z,80.29
2023-06-17T07:19:05.492Z,81.23
2023-06-17T07:20:05.644Z,80.43
2023-06-17T07:21:05.542Z,80.32
2023-06-17T07:22:05.646Z,80.12
2023-06-17T07:23:06.040Z,79.52
2023-06-17T07:24:06.002Z,80.02
2023-06-17T07:25:05.764Z,80.02
2023-06-17T07:26:05.659Z,80.49
2023-06-17T07:27:05.730Z,80.79
2023-06-17T07:28:05.753Z,80.29
2023-06-17T07:29:05.761Z,79.74
2023-06-17T07:30:05.754Z,80.65
2023-06-17T07:31:05.838Z,79.44
2023-06-17T07:32:05.890Z,79.04
2023-06-17T07:33:05.867Z,79.64
2023-06-17T07:34:05.849Z,79.34
2023-06-17T07:35:05.944Z,79.91
2023-06-17T07:36:05.900Z,79.74
2023-06-17T07:37:05.923Z,80.21
2023-06-17T07:38:06.004Z,79.44
2023-06-17T07:39:05.970Z,79.74
2023-06-17T07:40:06.033Z,81.26
2023-06-17T07:41:06.059Z,79.94
2023-06-17T07:42:06.047Z,79.94
2023-06-17T07:43:06.072Z,79.64
2023-06-17T07:44:06.096Z,80.01
2023-06-17T07:45:06.157Z,80.41
2023-06-17T07:46:08.286Z,80.05
2023-06-17T07:47:06.168Z,80.55
2023-06-17T07:48:06.307Z,80.35
2023-06-17T07:49:06.227Z,80.85
2023-06-17T07:50:06.243Z,81.76
2023-06-17T07:51:06.332Z,81.93
2023-06-17T07:52:06.304Z,82.03
2023-06-17T07:53:06.364Z,80.51
2023-06-17T07:54:06.346Z,80.82
2023-06-17T07:55:08.244Z,81.32
2023-06-17T07:56:06.416Z,80.98
2023-06-17T07:57:06.432Z,80.58
2023-06-17T07:58:06.464Z,80.38
2023-06-17T07:59:06.476Z,81.08
2023-06-17T08:00:06.484Z,80.18
2023-06-17T08:01:06.518Z,80.58
2023-06-17T08:02:09.604Z,80.64
2023-06-17T08:03:06.678Z,79.73
2023-06-17T08:04:06.643Z,79.53
2023-06-17T08:05:06.612Z,79.13
2023-06-17T08:06:06.633Z,79.53
2023-06-17T08:07:06.709Z,79.06
2023-06-17T08:08:06.693Z,80.47
2023-06-17T08:09:06.712Z,80.68
2023-06-17T08:10:09.689Z,79.77
2023-06-17T08:11:06.774Z,79.87
2023-06-17T08:12:06.837Z,79.87
2023-06-17T08:13:06.832Z,79.87
2023-06-17T08:14:06.854Z,80.24
2023-06-17T08:15:06.860Z,80.44
2023-06-17T08:16:06.926Z,80.33
2023-06-17T08:17:06.978Z,80.24
2023-06-17T08:18:07.102Z,80.60
2023-06-17T08:19:06.970Z,80.40
2023-06-17T08:20:06.989Z,79.29
2023-06-17T08:21:07.021Z,79.23
2023-06-17T08:22:07.044Z,80.44
2023-06-17T08:23:07.060Z,81.15
2023-06-17T08:24:07.172Z,80.30
2023-06-17T08:25:07.307Z,79.83
2023-06-17T08:26:07.133Z,80.24
2023-06-17T08:27:07.188Z,79.60
2023-06-17T08:28:07.213Z,79.49
2023-06-17T08:29:07.214Z,79.86
2023-06-17T08:30:07.234Z,80.36
2023-06-17T08:31:07.264Z,80.36
2023-06-17T08:32:07.301Z,78.71
2023-06-17T08:33:07.429Z,78.81
2023-06-17T08:34:07.365Z,78.45
2023-06-17T08:35:07.408Z,77.84
2023-06-17T08:36:07.386Z,77.75
2023-06-17T08:37:07.414Z,78.85
2023-06-17T08:38:07.456Z,78.35
2023-06-17T08:39:07.509Z,78.65
2023-06-17T08:40:07.549Z,78.81
2023-06-17T08:41:07.569Z,79.42
2023-06-17T08:42:07.745Z,77.81
2023-06-17T08:43:07.572Z,78.31
2023-06-17T08:44:07.633Z,78.31
2023-06-17T08:45:07.681Z,78.61
2023-06-17T08:46:07.682Z,77.77
2023-06-17T08:47:07.697Z,77.77
2023-06-17T08:48:07.735Z,77.73
2023-06-17T08:49:07.733Z,75.82
2023-06-17T08:50:07.780Z,76.23
2023-06-17T08:51:07.815Z,75.89
2023-06-17T08:52:07.807Z,75.99
2023-06-17T08:53:07.843Z,75.29
2023-06-17T08:54:07.862Z,75.09
2023-06-17T08:55:07.914Z,75.79
2023-06-17T08:56:07.987Z,75.79
2023-06-17T08:57:07.939Z,75.49
2023-06-17T08:58:08.080Z,74.95
2023-06-17T08:59:08.010Z,73.94
2023-06-17T09:00:08.024Z,74.71
2023-06-17T09:01:08.197Z,73.17
2023-06-17T09:02:08.076Z,73.17
2023-06-17T09:03:08.332Z,72.87
2023-06-17T09:04:08.133Z,72.06
2023-06-17T09:05:08.298Z,73.41
2023-06-17T09:06:08.185Z,72.24
2023-06-17T09:07:08.218Z,73.34
2023-06-17T09:08:08.274Z,73.64
2023-06-17T09:09:08.282Z,71.70
2023-06-17T09:10:08.342Z,71.16
2023-06-17T09:11:08.369Z,71.36
2023-06-17T09:12:08.362Z,71.43
2023-06-17T09:13:08.397Z,70.50
2023-06-17T09:14:08.452Z,70.56
2023-06-17T09:15:08.449Z,70.73
2023-06-17T09:16:08.480Z,68.59
2023-06-17T09:17:08.635Z,66.22
2023-06-17T09:18:08.618Z,66.02
2023-06-17T09:19:08.584Z,66.25
2023-06-17T09:20:08.592Z,68.59
2023-06-17T09:21:08.627Z,69.19
2023-06-17T09:22:08.663Z,70.93
2023-06-17T09:23:08.719Z,71.23
2023-06-17T09:24:08.735Z,70.03
2023-06-17T09:25:08.758Z,71.43
2023-06-17T09:26:08.774Z,70.83
2023-06-17T09:27:08.813Z,70.76
2023-06-17T09:28:16.862Z,70.83
2023-06-17T09:29:08.908Z,72.24
2023-06-17T09:30:09.922Z,71.30
2023-06-17T09:31:08.921Z,71.39
2023-06-17T09:32:08.963Z,71.50
2023-06-17T09:33:09.037Z,71.59
2023-06-17T09:34:09.028Z,68.82
2023-06-17T09:35:09.109Z,69.12
2023-06-17T09:36:09.072Z,70.12
2023-06-17T09:37:09.112Z,70.09
2023-06-17T09:38:09.172Z,69.32
2023-06-17T09:39:09.173Z,69.49
2023-06-17T09:40:09.209Z,70.50
2023-06-17T09:41:09.224Z,71.00
2023-06-17T09:42:09.292Z,71.26
2023-06-17T09:43:25.968Z,67.38
2023-06-17T09:44:09.317Z,68.49
2023-06-17T09:45:09.353Z,68.22
2023-06-17T09:46:09.420Z,68.72
2023-06-17T09:47:09.646Z,69.09
2023-06-17T09:48:09.523Z,69.26
2023-06-17T09:49:09.470Z,68.65
2023-06-17T09:50:09.501Z,69.49
2023-06-17T09:51:09.536Z,67.29
2023-06-17T09:52:09.746Z,69.42
2023-06-17T09:53:09.624Z,69.22
2023-06-17T09:54:09.634Z,68.72
2023-06-17T09:55:09.648Z,68.32
2023-06-17T09:56:09.697Z,69.53
2023-06-17T09:57:09.715Z,69.42
2023-06-17T09:58:09.811Z,70.43
2023-06-17T09:59:09.805Z,70.59
2023-06-17T10:00:09.805Z,69.96
2023-06-17T10:01:09.828Z,68.55
2023-06-17T10:02:09.858Z,69.35
2023-06-17T10:03:10.025Z,66.82
2023-06-17T10:04:10.087Z,66.35
2023-06-17T10:05:10.005Z,65.75
2023-06-17T10:06:09.979Z,68.55
2023-06-17T10:07:10.008Z,67.08
2023-06-17T10:08:10.041Z,66.45
2023-06-17T10:09:10.092Z,66.85
2023-06-17T10:10:10.110Z,66.95
2023-06-17T10:11:10.128Z,67.19
2023-06-17T10:12:10.161Z,66.92
2023-06-17T10:13:10.192Z,67.29
2023-06-17T10:14:10.245Z,66.22
2023-06-17T10:15:10.245Z,64.92
2023-06-17T10:16:10.275Z,64.03
2023-06-17T10:17:10.319Z,64.32
2023-06-17T10:18:10.379Z,64.62
2023-06-17T10:19:10.428Z,64.92
2023-06-17T10:20:10.406Z,64.79
2023-06-17T10:21:10.440Z,63.62
2023-06-17T10:22:10.515Z,63.02
2023-06-17T10:23:10.484Z,62.92
2023-06-17T10:24:10.634Z,62.89
2023-06-17T10:25:10.551Z,63.89
2023-06-17T10:26:10.631Z,64.26
2023-06-17T10:27:10.617Z,63.66
2023-06-17T10:28:10.644Z,63.76
2023-06-17T10:29:10.702Z,63.96
2023-06-17T10:30:10.705Z,64.43
2023-06-17T10:31:10.731Z,64.10
2023-06-17T10:32:10.913Z,64.00
2023-06-17T10:33:10.887Z,65.83
2023-06-17T10:34:10.848Z,66.23
2023-06-17T10:35:10.869Z,64.03
2023-06-17T10:36:10.932Z,63.53
2023-06-17T10:37:11.015Z,63.86
2023-06-17T10:38:11.061Z,65.69
2023-06-17T10:39:11.104Z,66.59
2023-06-17T10:40:11.098Z,64.12
2023-06-17T10:41:11.207Z,64.52
2023-06-17T10:42:11.173Z,66.52
2023-06-17T10:43:11.206Z,65.76
2023-06-17T10:44:11.235Z,64.46
2023-06-17T10:45:11.327Z,65.09
2023-06-17T10:46:11.342Z,64.19
2023-06-17T10:47:11.420Z,65.19
2023-06-17T10:48:11.370Z,65.92
2023-06-17T10:49:11.528Z,65.95
2023-06-17T10:50:11.433Z,65.12
2023-06-17T10:51:11.445Z,66.42
2023-06-17T10:52:11.567Z,65.95
2023-06-17T10:53:11.612Z,64.86
2023-06-17T10:54:11.546Z,65.72
2023-06-17T10:55:11.545Z,65.72
2023-06-17T10:56:12.773Z,66.32
2023-06-17T10:57:11.646Z,66.63
2023-06-17T10:58:11.743Z,64.49
2023-06-17T10:59:11.865Z,65.56
2023-06-17T11:00:11.740Z,66.06
2023-06-17T11:01:11.781Z,64.79
2023-06-17T11:02:11.824Z,65.69
2023-06-17T11:03:11.986Z,66.42
2023-06-17T11:04:11.884Z,66.89
2023-06-17T11:05:11.886Z,66.63
2023-06-17T11:06:11.963Z,66.59
2023-06-17T11:07:11.934Z,66.23
2023-06-17T11:08:12.082Z,63.80
2023-06-17T11:09:12.007Z,63.77
2023-06-17T11:10:12.074Z,63.94
2023-06-17T11:11:12.103Z,62.24
2023-06-17T11:12:12.187Z,59.88
2023-06-17T11:13:12.202Z,61.10
2023-06-17T11:14:12.137Z,59.85
2023-06-17T11:15:12.198Z,60.22
2023-06-17T11:16:12.259Z,62.54
2023-06-17T11:17:12.469Z,62.18
2023-06-17T11:18:12.367Z,61.21
2023-06-17T11:19:12.309Z,61.21
2023-06-17T11:20:12.336Z,61.30
2023-06-17T11:21:12.388Z,62.73
2023-06-17T11:22:12.522Z,63.03
2023-06-17T11:23:12.443Z,62.23
2023-06-17T11:24:12.504Z,64.03
2023-06-17T11:25:12.497Z,65.20
2023-06-17T11:26:12.623Z,62.81
2023-06-17T11:27:12.565Z,63.43
2023-06-17T11:28:12.672Z,64.43
2023-06-17T11:29:12.637Z,64.23
2023-06-17T11:30:12.699Z,64.46
2023-06-17T11:31:12.852Z,64.16
2023-06-17T11:32:12.842Z,63.93
2023-06-17T11:33:12.825Z,63.43
2023-06-17T11:34:12.795Z,63.83
2023-06-17T11:35:12.860Z,63.83
2023-06-17T11:36:12.853Z,65.03
2023-06-17T11:37:12.989Z,66.23
2023-06-17T11:38:12.968Z,64.00
2023-06-17T11:39:12.973Z,65.40
2023-06-17T11:40:13.200Z,65.20
2023-06-17T11:41:12.999Z,63.33
2023-06-17T11:42:13.069Z,64.36
2023-06-17T11:43:13.044Z,64.13
2023-06-17T11:44:13.127Z,64.23
2023-06-17T11:45:13.237Z,63.13
2023-06-17T11:46:13.151Z,63.40
2023-06-17T11:47:13.120Z,62.60
2023-06-17T11:48:13.177Z,60.78
2023-06-17T11:49:13.419Z,62.84
2023-06-17T11:50:13.282Z,62.34
2023-06-17T11:51:13.455Z,62.45
2023-06-17T11:52:13.775Z,63.34
2023-06-17T11:53:13.596Z,62.77
2023-06-17T11:54:13.532Z,61.71
2023-06-17T11:55:13.612Z,62.37
2023-06-17T11:56:13.580Z,61.08
2023-06-17T11:57:15.136Z,61.87
2023-06-17T11:58:13.533Z,62.97
2023-06-17T11:59:13.497Z,61.98
2023-06-17T12:00:13.740Z,61.87
2023-06-17T12:01:13.678Z,62.77
2023-06-17T12:02:13.882Z,64.87
2023-06-17T12:03:15.309Z,62.07
2023-06-17T12:04:13.947Z,61.57
2023-06-17T12:05:13.670Z,61.98
2023-06-17T12:06:14.133Z,62.77
2023-06-17T12:07:13.754Z,62.57
2023-06-17T12:08:13.796Z,60.85
2023-06-17T12:09:15.467Z,60.75
2023-06-17T12:10:13.903Z,61.18
2023-06-17T12:11:13.875Z,61.57
2023-06-17T12:12:13.881Z,62.77
2023-06-17T12:13:13.909Z,62.07
2023-06-17T12:14:13.961Z,61.25
2023-06-17T12:15:17.156Z,61.85
2023-06-17T12:16:14.006Z,60.82
2023-06-17T12:17:14.233Z,61.11
2023-06-17T12:18:15.940Z,60.72
2023-06-17T12:19:14.325Z,60.92
2023-06-17T12:20:14.524Z,60.72
2023-06-17T12:21:14.305Z,59.65
2023-06-17T12:22:14.211Z,60.85
2023-06-17T12:23:14.218Z,59.42
2023-06-17T12:24:14.300Z,61.02
2023-06-17T12:25:14.342Z,59.69
2023-06-17T12:26:14.333Z,60.32
2023-06-17T12:27:14.369Z,60.92
2023-06-17T12:28:14.391Z,59.62
2023-06-17T12:29:24.540Z,59.02
2023-06-17T12:30:14.478Z,59.52
2023-06-17T12:31:14.498Z,59.72
2023-06-17T12:32:14.503Z,59.42
2023-06-17T12:33:14.584Z,61.02
2023-06-17T12:34:14.599Z,61.52
2023-06-17T12:35:14.610Z,58.12
2023-06-17T12:36:14.672Z,60.19
2023-06-17T12:37:14.680Z,59.99
2023-06-17T12:38:14.673Z,57.40
2023-06-17T12:39:14.717Z,58.64
2023-06-17T12:40:14.824Z,57.15
2023-06-17T12:41:14.796Z,57.15
2023-06-17T12:42:14.804Z,55.95
2023-06-17T12:43:14.841Z,57.57
2023-06-17T12:44:14.867Z,57.07
2023-06-17T12:45:14.903Z,56.30
2023-06-17T12:46:14.980Z,57.47
2023-06-17T12:47:14.993Z,56.48
2023-06-17T12:48:14.985Z,57.47
2023-06-17T12:49:15.020Z,56.51
2023-06-17T12:50:15.080Z,56.81
2023-06-17T12:51:15.913Z,56.01
2023-06-17T12:52:15.211Z,55.01
2023-06-17T12:53:15.138Z,55.31